72  °F
Temperature
70  °F
  Dewpoint
   Humidity
Temp | Dewpoint | Humidity
8  km/h
Wind Speed
5  mph
Wind Speed
4  kts
Wind Speed
280°
Due West

Wind Speed
Light Rain
Showers
Pressure 1017.32 (hPa) - 30.04 (in)
Visibility 2.0 (mi) - 3.2 (km)

Current Conditions
KAVP
Location 6km (3.2mi)
Metar :KAVP 171254Z 28004KT 2SM +RA BR SCT033 BKN045 BKN075 22/21 A3004 RMK AO2 LTG DSNT SW RAB44 SLP165 P0000 T02170206
Sat 17th August 07:54 am

Airport
  Metar Aviation API Data Provided by https://www.checkwx.com/ CSS/SVG/PHP scripts by weather34.com © 2015-2019